ADDS METAR Data INFO
IDs: Format: Raw Decoded Include TAF

Data at: 0931 UTC 11 Dec 2017

KBMT 110915Z AUTO 00000KT 10SM CLR 05/04 A3033 RMK AO2 T00540037
KBMT 110855Z AUTO 20003KT 10SM CLR 06/04 A3033 RMK AO2 T00550037
KBMT 110835Z AUTO 21003KT 10SM CLR 05/04 A3034 RMK AO2 T00540036
KBMT 110815Z AUTO 23003KT 10SM CLR 05/03 A3034 RMK AO2 T00490032
KBMT 110755Z AUTO 22003KT 10SM CLR 04/03 A3034 RMK AO2 T00420025
KBMT 110735Z AUTO 21004KT 10SM CLR 06/03 A3033 RMK AO2 T00550030
KBMT 110715Z AUTO 22003KT 10SM CLR 06/03 A3033 RMK AO2 T00560028
KBMT 110655Z AUTO 21003KT 10SM CLR 06/03 A3033 RMK AO2 T00600027
KBMT 110635Z AUTO 21003KT 10SM CLR 06/03 A3033 RMK AO2 T00580025
KBMT 110615Z AUTO 00000KT 10SM CLR 06/02 A3034 RMK AO2 T00610024
KBMT 110555Z AUTO 23004KT 10SM CLR 06/02 A3035 RMK AO2 T00610023 10117 20055 401860007
KBMT 110535Z AUTO 22004KT 10SM CLR 06/02 A3036 RMK AO2 T00610024
KBMT 110515Z AUTO 23003KT 10SM CLR 06/02 A3036 RMK AO2 T00580024
KBMT 110455Z AUTO 22003KT 10SM CLR 07/03 A3037 RMK AO2 T00650025
KBMT 110435Z AUTO 23003KT 10SM CLR 07/02 A3038 RMK AO2 T00690024
KBMT 110415Z AUTO 21003KT 10SM CLR 07/02 A3038 RMK AO2 T00650023
KBMT 110355Z AUTO 21004KT 10SM CLR 06/02 A3039 RMK AO2 T00640024
KBMT 110335Z AUTO 21003KT 10SM CLR 06/02 A3039 RMK AO2 T00640022
KBMT 110315Z AUTO 21004KT 10SM CLR 06/02 A3038 RMK AO2 T00620018
KBMT 110255Z AUTO 21003KT 10SM CLR 07/02 A3038 RMK AO2 T00700023
KBMT 110235Z AUTO 00000KT 10SM CLR 08/02 A3038 RMK AO2 T00750020
KBMT 110215Z AUTO 00000KT 10SM CLR 08/02 A3038 RMK AO2 T00830021
KBMT 110155Z AUTO 20003KT 10SM CLR 08/02 A3039 RMK AO2 T00760020
KBMT 110135Z AUTO 21003KT 10SM CLR 09/02 A3038 RMK AO2 T00860015
KBMT 110115Z AUTO 24003KT 10SM CLR 10/02 A3038 RMK AO2 T00950015
KBMT 110055Z AUTO 26004KT 10SM CLR 10/02 A3037 RMK AO2 T01020020
KBMT 110035Z AUTO 25005KT 10SM CLR 11/02 A3037 RMK AO2 T01090020
KBMT 110015Z AUTO 25006KT 10SM CLR 12/02 A3037 RMK AO2 T01150024
KBMT 102355Z AUTO 00000KT 10SM CLR 11/02 A3036 RMK AO2 T01140019 10186 20111
KBMT 102335Z AUTO 00000KT 10SM CLR 13/01 A3036 RMK AO2 T01300009
KBMT 102315Z AUTO 29003KT 10SM CLR 15/01 A3036 RMK AO2 T01460005
KBMT 102255Z AUTO 30004KT 10SM CLR 15/01 A3036 RMK AO2 T01500006
KBMT 102235Z AUTO 30005KT 10SM CLR 15/00 A3036 RMK AO2 T01540001
KBMT 102215Z AUTO 27006KT 10SM CLR 17/M01 A3036 RMK AO2 T01691009
KBMT 102155Z AUTO 30005KT 10SM CLR 18/M01 A3036 RMK AO2 T01801015
KBMT 102135Z AUTO 26005KT 10SM CLR 18/M01 A3036 RMK AO2 T01811010
KBMT 102115Z AUTO 27007KT 10SM CLR 19/M01 A3037 RMK AO2 T01851011
KBMT 102055Z AUTO 26004KT 10SM CLR 18/M02 A3037 RMK AO2 T01821018
KBMT 102035Z AUTO 23004KT 10SM CLR 18/M02 A3037 RMK AO2 T01821019
KBMT 102015Z AUTO 00000KT 10SM CLR 18/M02 A3037 RMK AO2 T01781021
KBMT 101955Z AUTO 00000KT 10SM CLR 18/M02 A3037 RMK AO2 T01781022
KBMT 101935Z AUTO 26005KT 10SM CLR 18/M02 A3038 RMK AO2 T01771016
KBMT 101915Z AUTO 24003KT 10SM CLR 17/M02 A3038 RMK AO2 T01711017
KBMT 101855Z AUTO 33005KT 10SM CLR 17/M02 A3040 RMK AO2 T01721018
KBMT 101835Z AUTO 33004KT 10SM CLR 17/M02 A3040 RMK AO2 T01701019
KBMT 101815Z AUTO 27003KT 10SM CLR 16/M03 A3042 RMK AO2 T01621027
KBMT 101755Z AUTO 00000KT 10SM CLR 16/M03 A3043 RMK AO2 T01571029 10159 20007
KBMT 101735Z AUTO 00000KT 10SM CLR 15/M04 A3044 RMK AO2 T01541037
KBMT 101715Z AUTO 00000KT 10SM CLR 15/M03 A3044 RMK AO2 T01541034
KBMT 101655Z AUTO 00000KT 10SM CLR 15/M01 A3045 RMK AO2 T01461007
KBMT 101635Z AUTO 00000KT 10SM CLR 14/00 A3046 RMK AO2 T01350003
KBMT 101615Z AUTO 00000KT 10SM CLR 12/01 A3046 RMK AO2 T01240007
KBMT 101555Z AUTO 00000KT 10SM CLR 11/02 A3045 RMK AO2 T01130015
KBMT 101535Z AUTO 00000KT 10SM CLR 09/03 A3045 RMK AO2 T00940027
KBMT 101515Z AUTO 00000KT 10SM CLR 08/04 A3045 RMK AO2 T00830036
KBMT 101455Z AUTO 00000KT 10SM CLR 07/02 A3045 RMK AO2 T00660024
KBMT 101435Z AUTO 00000KT 10SM CLR 05/01 A3044 RMK AO2 T00520012
KBMT 101415Z AUTO 00000KT 10SM CLR 04/02 A3044 RMK AO2 T00370015
KBMT 101355Z AUTO 00000KT 10SM CLR 02/00 A3044 RMK AO2 T00180000
KBMT 101335Z AUTO 00000KT 10SM CLR 02/00 A3043 RMK AO2 T00161002
KBMT 101315Z AUTO 00000KT 10SM CLR 01/00 A3043 RMK AO2 T00081005
KBMT 101255Z AUTO 00000KT 10SM CLR 01/M01 A3042 RMK AO2 T00101006
KBMT 101235Z AUTO 00000KT 10SM CLR 01/M01 A3040 RMK AO2 T00131007
KBMT 101215Z AUTO 34003KT 10SM CLR 02/00 A3040 RMK AO2 T00151004
KBMT 101155Z AUTO 00000KT 10SM CLR 02/00 A3040 RMK AO2 T00170000 10045 20007
KBMT 101135Z AUTO 00000KT 10SM CLR 02/00 A3039 RMK AO2 T00191001
KBMT 101115Z AUTO 00000KT 10SM CLR 02/00 A3038 RMK AO2 T00160000
KBMT 101055Z AUTO 01003KT 10SM CLR 01/00 A3038 RMK AO2 T00101003
KBMT 101035Z AUTO 36004KT 10SM CLR 01/00 A3038 RMK AO2 T00130000
KBMT 101015Z AUTO 00000KT 10SM CLR 02/01 A3038 RMK AO2 T00180005
KBMT 100955Z AUTO 00000KT 10SM CLR 02/00 A3038 RMK AO2 T00180000
KBMT 100935Z AUTO 00000KT 10SM CLR 02/00 A3038 RMK AO2 T00191002
KBMT 100915Z AUTO 00000KT 10SM CLR 03/00 A3038 RMK AO2 T00270001
KBMT 100855Z AUTO 00000KT 10SM CLR 02/00 A3039 RMK AO2 T00161001
KBMT 100835Z AUTO 00000KT 10SM CLR 03/00 A3038 RMK AO2 T00300001
KBMT 100815Z AUTO 00000KT 10SM CLR 02/00 A3038 RMK AO2 T00210000
KBMT 100755Z AUTO 36003KT 10SM CLR 02/01 A3038 RMK AO2 T00240005
KBMT 100735Z AUTO 36003KT 10SM CLR 02/00 A3038 RMK AO2 T00230002
KBMT 100715Z AUTO 35003KT 10SM CLR 03/01 A3038 RMK AO2 T00250013
KBMT 100655Z AUTO 00000KT 10SM CLR 03/01 A3038 RMK AO2 T00290011
KBMT 100635Z AUTO 33003KT 10SM CLR 04/02 A3038 RMK AO2 T00360018
KBMT 100615Z AUTO 00000KT 10SM CLR 04/02 A3038 RMK AO2 T00370019
KBMT 100555Z AUTO 00000KT 10SM CLR 04/02 A3037 RMK AO2 T00350017 10093 20028 401651020
KBMT 100535Z AUTO 00000KT 10SM CLR 03/01 A3036 RMK AO2 T00340013
KBMT 100515Z AUTO 00000KT 10SM CLR 04/02 A3036 RMK AO2 T00410021
KBMT 100455Z AUTO 00000KT 10SM CLR 05/02 A3035 RMK AO2 T00520022
KBMT 100435Z AUTO 00000KT 10SM CLR 04/02 A3035 RMK AO2 T00440020
KBMT 100415Z AUTO 00000KT 10SM CLR 05/02 A3034 RMK AO2 T00490019
KBMT 100355Z AUTO 00000KT 10SM CLR 05/02 A3033 RMK AO2 T00540018
KBMT 100335Z AUTO 00000KT 10SM CLR 05/02 A3033 RMK AO2 T00540023
KBMT 100315Z AUTO 00000KT 10SM CLR 06/02 A3032 RMK AO2 T00600019
KBMT 100255Z AUTO 00000KT 10SM CLR 06/03 A3032 RMK AO2 T00610025
KBMT 100235Z AUTO 00000KT 10SM CLR 07/02 A3031 RMK AO2 T00690020
KBMT 100215Z AUTO 00000KT 10SM CLR 06/02 A3030 RMK AO2 T00640015
KBMT 100155Z AUTO 00000KT 10SM CLR 08/01 A3029 RMK AO2 T00780011
KBMT 100135Z AUTO 00000KT 10SM CLR 07/01 A3029 RMK AO2 T00710011
KBMT 100115Z AUTO 31003KT 10SM CLR 08/02 A3028 RMK AO2 T00800016
KBMT 100055Z AUTO 31004KT 10SM CLR 09/01 A3028 RMK AO2 T00920010
KBMT 100035Z AUTO 30003KT 10SM CLR 09/01 A3027 RMK AO2 T00930013
KBMT 100015Z AUTO 30003KT 10SM CLR 09/01 A3027 RMK AO2 T00850007
KBMT 092355Z AUTO 30005KT 10SM CLR 09/01 A3026 RMK AO2 T00920013 10165 20092
KBMT 092335Z AUTO 30006KT 10SM CLR 10/01 A3025 RMK AO2 T01000010
KBMT 092315Z AUTO 30006KT 10SM CLR 11/00 A3024 RMK AO2 T01140004
KBMT 092255Z AUTO 30007KT 10SM CLR 13/00 A3023 RMK AO2 T01321004
KBMT 092235Z AUTO 31009KT 10SM CLR 14/M01 A3023 RMK AO2 T01431013
KBMT 092215Z AUTO 30011KT 10SM CLR 15/M02 A3022 RMK AO2 T01511020
KBMT 092155Z AUTO 30008KT 10SM CLR 16/M01 A3022 RMK AO2 T01551011
KBMT 092135Z AUTO 31010G15KT 10SM CLR 16/00 A3021 RMK AO2 T01611004